Time;durP1;ratioP1;P1;durP2;ratioP2;P2;SDS_P1;SDS_P2;PMS_P1;PMS_P2;Temp;Humidity;BMP_temperature;BMP_pressure;BME280_temperature;BME280_humidity;BME280_pressure;Samples;Min_cycle;Max_cycle;Signal;HPM_P1;HPM_P2
2022/11/07 18:54:25;;;;;;;11.10;10.17;;;;;;;;;;5053449;28;20729;-55
2022/11/07 18:56:50;;;;;;;10.90;9.90;;;;;;;;;;5051522;28;20626;-55
2022/11/07 18:59:15;;;;;;;11.77;10.77;;;;;;;;;;5048003;28;20270;-55
2022/11/07 19:01:40;;;;;;;13.20;11.73;;;;;;;;;;5051507;28;20186;-55
2022/11/07 19:04:07;;;;;;;13.47;12.10;;;;;;;;;;5044588;28;20234;-55
2022/11/07 19:06:32;;;;;;;12.90;11.60;;;;;;;;;;5058342;28;20213;-55
2022/11/07 19:08:58;;;;;;;13.40;12.10;;;;;;;;;;5051079;28;20649;-55
2022/11/07 19:11:25;;;;;;;13.13;11.83;;;;;;;;;;5047775;28;20185;-55
2022/11/07 19:13:51;;;;;;;16.30;14.60;;;;;;;;;;5063832;28;20640;-55
2022/11/07 19:16:17;;;;;;;16.23;14.20;;;;;;;;;;5049100;28;20724;-55
2022/11/07 19:18:43;;;;;;;15.37;13.80;;;;;;;;;;5046498;28;20181;-56
2022/11/07 19:21:09;;;;;;;13.23;12.00;;;;;;;;;;5045232;28;21155;-55
2022/11/07 19:23:34;;;;;;;15.67;12.67;;;;;;;;;;5046616;28;20627;-56
2022/11/07 19:26:00;;;;;;;13.90;12.43;;;;;;;;;;5048590;28;20186;-55
2022/11/07 19:28:25;;;;;;;13.43;12.17;;;;;;;;;;5058688;28;20176;-55
2022/11/07 19:30:50;;;;;;;15.17;13.67;;;;;;;;;;5045484;28;20208;-56
2022/11/07 19:33:15;;;;;;;14.77;13.27;;;;;;;;;;5047577;28;20213;-55
2022/11/07 19:35:40;;;;;;;15.17;12.83;;;;;;;;;;5043749;28;20266;-55
2022/11/07 19:38:06;;;;;;;15.70;13.67;;;;;;;;;;5044147;28;20175;-54
2022/11/07 19:40:32;;;;;;;15.20;13.47;;;;;;;;;;5047268;28;20216;-55
2022/11/07 19:42:57;;;;;;;16.03;14.37;;;;;;;;;;5044799;28;20272;-53
2022/11/07 19:45:23;;;;;;;15.93;13.53;;;;;;;;;;5050403;28;20184;-54
2022/11/07 19:47:48;;;;;;;15.80;14.10;;;;;;;;;;5049743;28;20191;-54
2022/11/07 19:50:14;;;;;;;13.27;11.87;;;;;;;;;;5045824;28;20641;-54
2022/11/07 19:52:39;;;;;;;15.80;14.10;;;;;;;;;;5060883;28;20236;-54
2022/11/07 19:55:05;;;;;;;16.23;14.53;;;;;;;;;;5070116;28;20602;-53
2022/11/07 19:57:30;;;;;;;15.97;14.40;;;;;;;;;;5048171;28;20184;-55
2022/11/07 19:59:55;;;;;;;15.60;14.27;;;;;;;;;;5051340;28;20192;-55
2022/11/07 20:02:20;;;;;;;18.03;14.80;;;;;;;;;;5065615;28;20237;-55
2022/11/07 20:04:45;;;;;;;15.03;13.37;;;;;;;;;;5034558;28;20184;-55
2022/11/07 20:07:11;;;;;;;14.30;13.07;;;;;;;;;;5033068;28;20194;-55
2022/11/07 20:09:36;;;;;;;12.30;11.20;;;;;;;;;;5035003;28;20246;-56
2022/11/07 20:12:01;;;;;;;15.00;13.20;;;;;;;;;;5030192;28;20575;-55
2022/11/07 20:14:26;;;;;;;13.57;12.37;;;;;;;;;;5030345;28;20174;-54
2022/11/07 20:16:52;;;;;;;13.73;12.43;;;;;;;;;;5033451;28;20256;-54
2022/11/07 20:19:17;;;;;;;12.77;11.48;;;;;;;;;;5033003;28;20176;-54
2022/11/07 20:21:42;;;;;;;12.73;11.43;;;;;;;;;;5032497;28;20642;-54
2022/11/07 20:24:08;;;;;;;11.52;10.48;;;;;;;;;;5039257;28;20236;-55
2022/11/07 20:26:34;;;;;;;11.67;10.60;;;;;;;;;;5034975;28;20181;-54
2022/11/07 20:28:59;;;;;;;14.60;10.70;;;;;;;;;;5045419;28;20190;-54
2022/11/07 20:31:29;;;;;;;11.23;10.00;;;;;;;;;;5047757;28;20685;-54
2022/11/07 20:33:56;;;;;;;12.97;9.93;;;;;;;;;;5032930;28;20222;-55
2022/11/07 20:36:21;;;;;;;10.73;9.73;;;;;;;;;;5029530;28;20959;-54
2022/11/07 20:38:46;;;;;;;12.53;9.80;;;;;;;;;;5028796;28;20606;-54
2022/11/07 20:41:12;;;;;;;10.50;9.50;;;;;;;;;;5028769;28;20184;-55
2022/11/07 20:43:38;;;;;;;13.63;10.50;;;;;;;;;;5032793;28;20189;-54
2022/11/07 20:46:04;;;;;;;11.47;10.40;;;;;;;;;;5028680;28;20183;-54
2022/11/07 20:48:29;;;;;;;10.47;9.47;;;;;;;;;;5040575;28;20598;-54
2022/11/07 20:50:54;;;;;;;11.07;9.40;;;;;;;;;;5036431;28;20960;-55
2022/11/07 20:53:19;;;;;;;11.90;9.87;;;;;;;;;;5042697;28;20238;-54
2022/11/07 20:55:45;;;;;;;10.50;9.38;;;;;;;;;;5029393;28;20250;-54
2022/11/07 20:58:10;;;;;;;10.63;9.53;;;;;;;;;;5029341;28;20555;-55
2022/11/07 21:00:37;;;;;;;11.43;9.83;;;;;;;;;;5031328;28;20187;-55
2022/11/07 21:03:02;;;;;;;11.13;10.00;;;;;;;;;;5031953;28;20697;-55
2022/11/07 21:05:28;;;;;;;10.40;9.50;;;;;;;;;;5029717;28;20704;-55
2022/11/07 21:07:53;;;;;;;10.90;9.07;;;;;;;;;;5035919;28;20591;-54
2022/11/07 21:10:18;;;;;;;10.47;8.77;;;;;;;;;;5048886;28;20176;-54
2022/11/07 21:12:43;;;;;;;9.37;8.53;;;;;;;;;;5038162;28;20219;-54
2022/11/07 21:15:09;;;;;;;10.70;9.67;;;;;;;;;;5042050;28;20174;-54
2022/11/07 21:17:34;;;;;;;8.97;8.10;;;;;;;;;;5037589;28;20226;-54
2022/11/07 21:19:59;;;;;;;9.07;8.27;;;;;;;;;;5038811;28;20431;-54
2022/11/07 21:22:24;;;;;;;9.40;8.50;;;;;;;;;;5044144;28;20539;-54
2022/11/07 21:24:50;;;;;;;9.13;8.30;;;;;;;;;;5027383;28;20195;-55
2022/11/07 21:27:15;;;;;;;9.47;8.70;;;;;;;;;;5037105;28;20218;-54
2022/11/07 21:29:40;;;;;;;9.80;8.90;;;;;;;;;;5035263;28;20529;-54
2022/11/07 21:32:07;;;;;;;9.30;7.90;;;;;;;;;;5035873;28;20192;-54
2022/11/07 21:34:35;;;;;;;9.40;8.23;;;;;;;;;;5039898;28;20181;-54
2022/11/07 21:37:01;;;;;;;9.40;8.60;;;;;;;;;;5032879;28;20616;-55
2022/11/07 21:39:26;;;;;;;9.60;8.70;;;;;;;;;;5040547;28;21157;-55
2022/11/07 21:41:51;;;;;;;9.43;8.63;;;;;;;;;;5046950;28;20264;-55
2022/11/07 21:44:16;;;;;;;10.40;9.40;;;;;;;;;;5038894;28;20179;-54
2022/11/07 21:46:42;;;;;;;8.70;8.00;;;;;;;;;;5045288;28;20191;-55
2022/11/07 21:49:07;;;;;;;9.40;8.53;;;;;;;;;;5035603;28;20185;-56
2022/11/07 21:51:33;;;;;;;9.27;8.33;;;;;;;;;;5038647;28;20172;-54
2022/11/07 21:53:59;;;;;;;9.00;8.30;;;;;;;;;;5039877;28;20250;-55
2022/11/07 21:56:25;;;;;;;9.97;8.50;;;;;;;;;;5028748;28;21129;-55
2022/11/07 21:59:10;;;;;;;9.73;8.77;;;;;;;;;;5029610;28;20271;-54
2022/11/07 22:01:36;;;;;;;8.50;7.80;;;;;;;;;;5033645;28;21146;-54
2022/11/07 22:04:02;;;;;;;13.00;11.77;;;;;;;;;;5036076;28;20611;-53
2022/11/07 22:06:28;;;;;;;8.27;7.57;;;;;;;;;;5032913;28;20622;-53
2022/11/07 22:08:53;;;;;;;8.80;8.00;;;;;;;;;;5037656;28;20623;-53
2022/11/07 22:11:19;;;;;;;8.07;7.27;;;;;;;;;;5041206;28;20581;-53
2022/11/07 22:13:44;;;;;;;9.13;7.70;;;;;;;;;;5046622;28;20195;-53
2022/11/07 22:16:10;;;;;;;8.13;7.50;;;;;;;;;;5031030;28;20533;-53
2022/11/07 22:18:36;;;;;;;7.00;6.40;;;;;;;;;;5030448;28;20176;-53
2022/11/07 22:21:02;;;;;;;7.63;6.83;;;;;;;;;;5039659;28;20602;-54
2022/11/07 22:23:28;;;;;;;7.03;6.17;;;;;;;;;;5044534;28;20181;-53
2022/11/07 22:25:53;;;;;;;7.20;6.53;;;;;;;;;;5042347;28;20630;-54
2022/11/07 22:28:19;;;;;;;8.27;7.57;;;;;;;;;;5035159;28;20635;-54
2022/11/07 22:30:44;;;;;;;7.27;6.63;;;;;;;;;;5029359;28;20203;-54
2022/11/07 22:33:10;;;;;;;8.95;7.72;;;;;;;;;;5049095;28;20261;-55
2022/11/07 22:35:35;;;;;;;7.47;6.87;;;;;;;;;;5039511;28;20179;-55
2022/11/07 22:38:00;;;;;;;9.83;6.90;;;;;;;;;;5039376;28;20690;-55
2022/11/07 22:40:25;;;;;;;8.50;7.72;;;;;;;;;;5043536;28;20174;-54
2022/11/07 22:42:50;;;;;;;16.47;7.50;;;;;;;;;;5045591;28;20189;-54
2022/11/07 22:45:16;;;;;;;8.70;7.65;;;;;;;;;;5046896;28;20640;-54
2022/11/07 22:47:41;;;;;;;9.57;7.50;;;;;;;;;;5037745;28;20181;-54
2022/11/07 22:50:06;;;;;;;8.00;7.20;;;;;;;;;;5040329;28;20261;-53
2022/11/07 22:52:31;;;;;;;10.03;7.93;;;;;;;;;;5037284;28;20232;-54
2022/11/07 22:54:56;;;;;;;7.60;6.93;;;;;;;;;;5047316;28;20261;-56
2022/11/07 22:57:22;;;;;;;7.77;7.07;;;;;;;;;;5049032;28;20544;-53
2022/11/07 22:59:47;;;;;;;13.23;7.60;;;;;;;;;;5048920;28;20665;-53
2022/11/07 23:02:12;;;;;;;8.20;7.50;;;;;;;;;;5033153;28;20171;-55
2022/11/07 23:04:37;;;;;;;7.43;6.82;;;;;;;;;;5037376;28;20189;-54
2022/11/07 23:07:02;;;;;;;11.30;6.97;;;;;;;;;;5038717;28;20230;-56
2022/11/07 23:09:27;;;;;;;7.77;6.90;;;;;;;;;;5047543;28;20456;-54
2022/11/07 23:11:53;;;;;;;7.17;6.50;;;;;;;;;;5039980;28;20222;-54
2022/11/07 23:14:19;;;;;;;7.50;6.83;;;;;;;;;;5039493;28;20275;-53
2022/11/07 23:16:46;;;;;;;7.60;6.90;;;;;;;;;;5032506;28;20186;-54
2022/11/07 23:19:12;;;;;;;8.30;6.60;;;;;;;;;;5043767;28;20613;-54
2022/11/07 23:21:37;;;;;;;7.80;7.10;;;;;;;;;;5033203;28;20602;-54
2022/11/07 23:24:03;;;;;;;7.07;6.47;;;;;;;;;;5043518;28;20247;-54
2022/11/07 23:26:32;;;;;;;7.17;6.67;;;;;;;;;;5040500;28;20724;-54
2022/11/07 23:28:58;;;;;;;8.23;6.70;;;;;;;;;;5040186;28;20622;-54
2022/11/07 23:31:23;;;;;;;7.67;6.83;;;;;;;;;;5036140;28;20603;-55
2022/11/07 23:33:48;;;;;;;7.93;7.17;;;;;;;;;;5033208;28;20654;-54
2022/11/07 23:36:14;;;;;;;7.20;6.60;;;;;;;;;;5031602;28;20188;-55
2022/11/07 23:38:40;;;;;;;7.20;6.50;;;;;;;;;;5032729;28;20589;-55
2022/11/07 23:41:07;;;;;;;7.80;6.80;;;;;;;;;;5042514;28;20641;-54
2022/11/07 23:43:32;;;;;;;7.07;6.47;;;;;;;;;;5051323;28;20578;-54
2022/11/07 23:51:26;;;;;;;8.63;6.93;;;;;;;;;;5044647;28;20713;-54
2022/11/07 23:56:35;;;;;;;8.73;7.27;;;;;;;;;;5037142;28;20258;-55
